createdAt,value
2022-12-24T00:01:19.523Z,5.45
2022-12-24T00:03:47.044Z,6.38
2022-12-24T00:06:17.531Z,6.65
2022-12-24T00:08:44.815Z,6.47
2022-12-24T00:11:12.235Z,5.38
2022-12-24T00:13:39.565Z,6.95
2022-12-24T00:16:07.049Z,6.55
2022-12-24T00:18:37.447Z,6.30
2022-12-24T00:21:10.489Z,6.75
2022-12-24T00:23:37.783Z,7.18
2022-12-24T00:26:05.280Z,6.82
2022-12-24T00:28:32.685Z,8.27
2022-12-24T00:31:00.213Z,6.43
2022-12-24T00:33:27.589Z,7.95
2022-12-24T00:35:54.905Z,5.65
2022-12-24T00:38:22.345Z,6.03
2022-12-24T00:40:49.653Z,8.63
2022-12-24T00:43:16.953Z,5.30
2022-12-24T00:45:44.304Z,11.77
2022-12-24T00:48:11.669Z,8.15
2022-12-24T00:50:39.078Z,7.95
2022-12-24T00:53:06.491Z,6.05
2022-12-24T00:55:33.822Z,8.15
2022-12-24T00:58:01.193Z,7.85
2022-12-24T01:00:28.535Z,7.80
2022-12-24T01:02:56.047Z,6.32
2022-12-24T01:05:23.974Z,7.90
2022-12-24T01:07:51.312Z,7.82
2022-12-24T01:10:19.895Z,7.45
2022-12-24T01:12:47.644Z,6.47
2022-12-24T01:15:15.867Z,6.57
2022-12-24T01:17:43.224Z,6.88
2022-12-24T01:20:13.941Z,7.00
2022-12-24T01:22:41.532Z,6.78
2022-12-24T01:25:09.115Z,8.30
2022-12-24T01:27:36.521Z,7.57
2022-12-24T01:30:04.750Z,7.20
2022-12-24T01:32:32.622Z,5.50
2022-12-24T01:35:00.241Z,6.85
2022-12-24T01:37:27.856Z,6.50
2022-12-24T01:40:15.254Z,7.15
2022-12-24T01:43:03.711Z,6.28
2022-12-24T01:45:43.163Z,6.60
2022-12-24T01:50:37.822Z,6.70
2022-12-24T01:53:06.865Z,6.88
2022-12-24T01:55:34.209Z,8.27
2022-12-24T01:58:02.508Z,7.70
2022-12-24T02:00:29.800Z,6.55
2022-12-24T02:02:57.818Z,7.07
2022-12-24T02:05:40.090Z,7.03
2022-12-24T02:08:11.762Z,5.82
2022-12-24T02:10:39.164Z,7.60
2022-12-24T02:13:06.920Z,6.25
2022-12-24T02:16:03.692Z,7.35
2022-12-24T02:18:49.727Z,9.88
2022-12-24T02:21:22.953Z,7.28
2022-12-24T02:24:02.482Z,5.47
2022-12-24T02:27:02.557Z,8.10
2022-12-24T02:29:33.315Z,7.38
2022-12-24T02:32:12.909Z,7.38
2022-12-24T02:34:45.809Z,7.28
2022-12-24T02:37:13.069Z,5.93
2022-12-24T02:39:53.659Z,5.55
2022-12-24T02:42:27.072Z,6.57
2022-12-24T02:44:56.588Z,6.75
2022-12-24T02:47:25.761Z,5.97
2022-12-24T02:49:53.076Z,6.07
2022-12-24T02:52:40.209Z,6.07
2022-12-24T02:55:13.320Z,7.10
2022-12-24T02:57:49.513Z,6.07
2022-12-24T03:00:18.892Z,6.63
2022-12-24T03:03:07.484Z,5.93
2022-12-24T03:05:40.654Z,5.55
2022-12-24T03:08:22.917Z,5.18
2022-12-24T03:10:53.184Z,5.22
2022-12-24T03:13:21.732Z,6.35
2022-12-24T03:15:49.863Z,8.77
2022-12-24T03:18:38.936Z,6.22
2022-12-24T03:21:15.501Z,8.10
2022-12-24T03:23:43.684Z,6.28
2022-12-24T03:26:13.497Z,6.53
2022-12-24T03:28:41.892Z,6.15
2022-12-24T03:31:10.348Z,8.55
2022-12-24T03:33:37.787Z,7.32
2022-12-24T03:36:05.904Z,7.20
2022-12-24T03:38:33.737Z,5.63
2022-12-24T03:41:01.409Z,8.27
2022-12-24T03:43:28.817Z,6.75
2022-12-24T03:45:56.373Z,5.72
2022-12-24T03:48:29.010Z,5.65
2022-12-24T03:50:59.938Z,7.93
2022-12-24T03:53:27.453Z,5.72
2022-12-24T03:55:54.828Z,7.50
2022-12-24T03:58:22.294Z,5.78
2022-12-24T04:00:50.521Z,6.78
2022-12-24T04:12:24.479Z,7.95
2022-12-24T04:14:51.981Z,5.55
2022-12-24T04:17:19.460Z,5.53
2022-12-24T04:19:46.943Z,5.72
2022-12-24T04:22:14.713Z,7.00
2022-12-24T04:24:42.093Z,6.45
2022-12-24T04:27:09.471Z,7.15
2022-12-24T04:29:36.897Z,6.30
2022-12-24T04:32:04.535Z,5.35
2022-12-24T04:34:32.132Z,6.53
2022-12-24T04:36:59.631Z,7.60
2022-12-24T04:39:27.230Z,5.60
2022-12-24T04:41:54.531Z,7.30
2022-12-24T04:44:22.332Z,6.47
2022-12-24T04:46:49.772Z,10.07
2022-12-24T04:49:17.673Z,5.90
2022-12-24T04:51:45.305Z,7.80
2022-12-24T04:54:12.637Z,7.13
2022-12-24T04:56:39.901Z,6.63
2022-12-24T04:59:07.168Z,6.90
2022-12-24T05:01:34.637Z,5.53
2022-12-24T05:04:06.862Z,7.20
2022-12-24T05:06:34.499Z,7.40
2022-12-24T05:09:02.006Z,5.93
2022-12-24T05:11:29.886Z,7.47
2022-12-24T05:13:57.214Z,7.70
2022-12-24T05:16:25.141Z,7.95
2022-12-24T05:18:52.607Z,7.13
2022-12-24T05:21:23.946Z,8.07
2022-12-24T05:24:10.249Z,6.65
2022-12-24T05:26:37.699Z,6.05
2022-12-24T05:29:05.964Z,6.55
2022-12-24T05:31:33.657Z,6.72
2022-12-24T05:34:04.247Z,9.98
2022-12-24T05:36:31.777Z,6.72
2022-12-24T05:38:59.105Z,6.63
2022-12-24T05:41:26.733Z,8.93
2022-12-24T05:43:54.008Z,9.75
2022-12-24T05:46:22.147Z,9.15
2022-12-24T05:48:50.003Z,7.28
2022-12-24T05:51:22.295Z,8.02
2022-12-24T05:53:50.281Z,7.57
2022-12-24T05:56:19.512Z,7.82
2022-12-24T05:58:46.971Z,7.93
2022-12-24T06:01:15.477Z,9.77
2022-12-24T06:03:42.839Z,6.67
2022-12-24T06:06:14.844Z,7.60
2022-12-24T06:08:42.666Z,7.35
2022-12-24T06:11:13.199Z,8.77
2022-12-24T06:13:41.429Z,7.30
2022-12-24T06:16:09.865Z,7.80
2022-12-24T06:18:40.702Z,6.73
2022-12-24T06:21:10.925Z,7.00
2022-12-24T06:23:45.708Z,7.03
2022-12-24T06:26:19.891Z,6.80
2022-12-24T06:28:48.136Z,6.85
2022-12-24T06:31:16.566Z,6.68
2022-12-24T06:33:44.543Z,6.38
2022-12-24T06:36:17.761Z,6.93
2022-12-24T06:38:46.179Z,9.30
2022-12-24T06:41:13.512Z,7.97
2022-12-24T06:43:44.180Z,5.43
2022-12-24T06:46:11.641Z,7.53
2022-12-24T06:48:39.057Z,10.75
2022-12-24T06:51:06.833Z,8.25
2022-12-24T06:53:34.339Z,7.90
2022-12-24T06:56:04.412Z,6.97
2022-12-24T06:58:31.943Z,8.93
2022-12-24T07:00:59.472Z,7.95
2022-12-24T07:03:26.868Z,11.07
2022-12-24T07:05:54.638Z,6.63
2022-12-24T07:08:22.101Z,7.63
2022-12-24T07:10:54.147Z,9.15
2022-12-24T07:13:23.645Z,7.90
2022-12-24T07:15:58.696Z,8.48
2022-12-24T07:18:29.843Z,10.40
2022-12-24T07:20:57.597Z,8.73
2022-12-24T07:23:25.152Z,7.72
2022-12-24T07:25:52.769Z,10.85
2022-12-24T07:28:25.737Z,9.13
2022-12-24T07:30:57.326Z,7.95
2022-12-24T07:35:59.465Z,7.57
2022-12-24T07:38:27.080Z,8.93
2022-12-24T07:40:58.248Z,8.23
2022-12-24T07:43:26.107Z,6.63
2022-12-24T07:45:55.805Z,8.73
2022-12-24T07:48:25.372Z,8.73
2022-12-24T07:50:53.387Z,8.00
2022-12-24T07:53:21.658Z,8.10
2022-12-24T07:55:49.022Z,10.77
2022-12-24T07:58:16.433Z,8.95
2022-12-24T08:00:43.876Z,9.32
2022-12-24T08:03:19.102Z,8.90
2022-12-24T08:05:46.899Z,9.05
2022-12-24T08:08:14.640Z,8.48
2022-12-24T08:10:42.901Z,9.98
2022-12-24T08:13:10.313Z,8.35
2022-12-24T08:15:37.779Z,9.95
2022-12-24T08:18:05.298Z,9.13
2022-12-24T08:20:32.675Z,10.38
2022-12-24T08:22:59.939Z,7.47
2022-12-24T08:25:27.213Z,8.02
2022-12-24T08:27:54.475Z,7.75
2022-12-24T08:30:21.890Z,7.55
2022-12-24T08:32:49.383Z,9.82
2022-12-24T08:35:18.936Z,7.97
2022-12-24T08:37:46.280Z,8.05
2022-12-24T08:40:13.767Z,10.40
2022-12-24T08:42:41.341Z,8.48
2022-12-24T08:45:10.129Z,9.00
2022-12-24T08:47:37.450Z,12.00
2022-12-24T08:50:08.107Z,7.63
2022-12-24T08:52:35.500Z,10.35
2022-12-24T08:55:02.735Z,9.02
2022-12-24T08:57:30.106Z,9.20
2022-12-24T08:59:57.771Z,7.13
2022-12-24T09:02:25.323Z,8.15
2022-12-24T09:04:52.734Z,8.88
2022-12-24T09:07:22.807Z,8.57
2022-12-24T09:09:50.157Z,9.27
2022-12-24T09:12:18.788Z,7.75
2022-12-24T09:14:46.076Z,9.50
2022-12-24T09:17:13.607Z,9.45
2022-12-24T09:19:40.985Z,8.65
2022-12-24T09:22:08.253Z,10.25
2022-12-24T09:24:36.425Z,9.25
2022-12-24T09:27:04.185Z,9.95
2022-12-24T09:29:32.963Z,8.00
2022-12-24T09:32:00.398Z,8.82
2022-12-24T09:34:30.616Z,10.45
2022-12-24T09:36:58.402Z,10.10
2022-12-24T09:39:25.750Z,11.70
2022-12-24T09:42:08.382Z,8.30
2022-12-24T09:44:35.595Z,7.32
2022-12-24T09:47:10.229Z,11.63
2022-12-24T09:49:46.006Z,12.85
2022-12-24T09:52:14.812Z,8.38
2022-12-24T09:54:49.775Z,8.20
2022-12-24T09:57:37.957Z,8.73
2022-12-24T10:00:17.196Z,9.32
2022-12-24T10:02:44.682Z,8.13
2022-12-24T10:05:15.783Z,7.40
2022-12-24T10:07:51.918Z,7.35
2022-12-24T10:10:48.257Z,20.60
2022-12-24T10:13:24.059Z,10.68
2022-12-24T10:15:57.991Z,8.48
2022-12-24T10:18:32.958Z,8.48
2022-12-24T10:21:11.836Z,12.07
2022-12-24T10:23:42.069Z,7.47
2022-12-24T10:26:24.668Z,8.85
2022-12-24T10:29:21.418Z,8.35
2022-12-24T10:31:54.753Z,7.60
2022-12-24T10:34:23.996Z,8.38
2022-12-24T10:36:51.636Z,9.25
2022-12-24T10:39:20.929Z,8.10
2022-12-24T10:41:52.962Z,6.68
2022-12-24T10:44:22.409Z,7.18
2022-12-24T10:49:17.933Z,7.68
2022-12-24T10:52:01.344Z,8.00
2022-12-24T10:54:34.393Z,7.35
2022-12-24T10:57:02.402Z,9.13
2022-12-24T10:59:31.593Z,7.97
2022-12-24T11:01:59.899Z,11.05
2022-12-24T11:04:31.535Z,7.07
2022-12-24T11:07:03.188Z,7.03
2022-12-24T11:09:35.116Z,6.60
2022-12-24T11:12:09.005Z,6.38
2022-12-24T11:14:38.242Z,6.28
2022-12-24T11:17:05.853Z,6.18
2022-12-24T11:19:34.276Z,5.25
2022-12-24T11:22:06.137Z,8.10
2022-12-24T11:24:38.694Z,6.72
2022-12-24T11:27:30.217Z,6.07
2022-12-24T11:30:15.944Z,6.15
2022-12-24T11:32:50.683Z,5.60
2022-12-24T11:35:21.629Z,5.00
2022-12-24T11:37:50.476Z,5.63
2022-12-24T11:40:22.355Z,5.38
2022-12-24T11:42:53.871Z,5.28
2022-12-24T11:45:26.068Z,6.72
2022-12-24T11:47:56.058Z,7.15
2022-12-24T11:50:35.314Z,5.95
2022-12-24T11:53:13.667Z,6.38
2022-12-24T11:55:41.403Z,5.18
2022-12-24T11:58:20.829Z,5.45
2022-12-24T12:00:49.045Z,6.25
2022-12-24T12:03:30.051Z,5.35
2022-12-24T12:05:59.833Z,7.03
2022-12-24T12:08:28.477Z,5.55
2022-12-24T12:10:59.060Z,5.60
2022-12-24T12:13:33.065Z,6.32
2022-12-24T12:16:19.267Z,5.22
2022-12-24T12:19:08.753Z,5.95
2022-12-24T12:21:43.286Z,4.60
2022-12-24T12:24:15.595Z,6.53
2022-12-24T12:26:45.315Z,5.53
2022-12-24T12:29:25.675Z,7.10
2022-12-24T12:31:58.044Z,4.60
2022-12-24T12:34:25.578Z,6.22
2022-12-24T12:36:57.403Z,5.40
2022-12-24T12:39:24.718Z,5.03
2022-12-24T12:41:58.026Z,4.28
2022-12-24T12:44:37.424Z,4.40
2022-12-24T12:49:47.219Z,4.82
2022-12-24T12:52:27.845Z,4.03
2022-12-24T12:55:00.920Z,7.78
2022-12-24T12:57:29.412Z,5.93
2022-12-24T12:59:59.310Z,5.30
2022-12-24T13:02:32.859Z,5.22
2022-12-24T13:05:19.109Z,3.80
2022-12-24T13:07:46.368Z,4.50
2022-12-24T13:10:32.255Z,6.05
2022-12-24T13:13:05.789Z,5.55
2022-12-24T13:15:51.736Z,5.05
2022-12-24T13:18:48.335Z,6.07
2022-12-24T13:21:21.101Z,6.35
2022-12-24T13:23:48.952Z,4.95
2022-12-24T13:26:17.068Z,4.90
2022-12-24T13:28:44.525Z,16.23
2022-12-24T13:31:19.792Z,5.75
2022-12-24T13:33:48.380Z,5.32
2022-12-24T13:36:19.211Z,7.50
2022-12-24T13:38:49.353Z,5.20
2022-12-24T13:41:41.881Z,4.72
2022-12-24T13:44:11.157Z,5.50
2022-12-24T13:46:49.150Z,5.10
2022-12-24T13:49:21.235Z,5.40
2022-12-24T13:51:50.729Z,5.80
2022-12-24T13:54:20.658Z,5.82
2022-12-24T13:56:48.068Z,5.05
2022-12-24T13:59:24.476Z,5.35
2022-12-24T14:01:51.957Z,3.90
2022-12-24T14:04:24.045Z,5.07
2022-12-24T14:06:52.517Z,6.45
2022-12-24T14:09:21.130Z,5.00
2022-12-24T14:11:57.362Z,5.90
2022-12-24T14:14:29.056Z,6.30
2022-12-24T14:16:58.907Z,6.55
2022-12-24T14:19:33.667Z,6.22
2022-12-24T14:22:15.203Z,5.82
2022-12-24T14:24:43.570Z,6.25
2022-12-24T14:27:31.288Z,3.95
2022-12-24T14:29:58.801Z,4.55
2022-12-24T14:32:34.395Z,5.07
2022-12-24T14:35:07.614Z,4.55
2022-12-24T14:37:35.190Z,7.93
2022-12-24T14:40:02.577Z,6.63
2022-12-24T14:42:51.562Z,4.50
2022-12-24T14:45:38.398Z,4.25
2022-12-24T14:48:24.976Z,4.07
2022-12-24T14:50:52.239Z,4.20
2022-12-24T14:53:19.614Z,5.53
2022-12-24T14:55:48.333Z,5.18
2022-12-24T14:58:15.530Z,5.05
2022-12-24T15:00:45.631Z,5.80
2022-12-24T15:03:14.313Z,5.03
2022-12-24T15:05:41.721Z,4.40
2022-12-24T15:08:16.977Z,4.72
2022-12-24T15:10:45.247Z,6.30
2022-12-24T15:13:21.608Z,5.35
2022-12-24T15:15:52.552Z,7.63
2022-12-24T15:18:22.719Z,6.03
2022-12-24T15:20:51.804Z,6.88
2022-12-24T15:23:20.319Z,5.97
2022-12-24T15:25:47.706Z,6.43
2022-12-24T15:28:20.691Z,5.43
2022-12-24T15:30:48.131Z,8.93
2022-12-24T15:33:15.676Z,5.35
2022-12-24T15:35:56.718Z,5.13
2022-12-24T15:38:26.336Z,8.77
2022-12-24T15:40:55.455Z,15.63
2022-12-24T15:43:23.020Z,31.42
2022-12-24T15:45:50.651Z,10.20
2022-12-24T15:48:23.742Z,15.05
2022-12-24T15:50:53.083Z,9.55
2022-12-24T15:53:26.170Z,7.97
2022-12-24T15:56:05.860Z,6.43
2022-12-24T15:58:39.562Z,6.65
2022-12-24T16:01:19.222Z,8.13
2022-12-24T16:03:50.341Z,8.25
2022-12-24T16:06:18.069Z,7.88
2022-12-24T16:08:46.048Z,8.10
2022-12-24T16:11:13.401Z,12.40
2022-12-24T16:13:42.197Z,8.65
2022-12-24T16:16:11.609Z,8.35
2022-12-24T16:21:07.227Z,8.48
2022-12-24T16:23:39.004Z,7.13
2022-12-24T16:26:10.727Z,8.07
2022-12-24T16:28:38.014Z,11.05
2022-12-24T16:31:05.471Z,8.23
2022-12-24T16:33:33.272Z,7.35
2022-12-24T16:36:01.494Z,11.15
2022-12-24T16:38:48.676Z,8.85
2022-12-24T16:41:16.491Z,8.00
2022-12-24T16:43:49.561Z,9.27
2022-12-24T16:46:16.937Z,10.45
2022-12-24T16:48:46.849Z,9.52
2022-12-24T16:51:14.140Z,28.35
2022-12-24T16:53:41.472Z,13.63
2022-12-24T16:56:08.929Z,11.48
2022-12-24T16:58:36.249Z,10.77
2022-12-24T17:01:08.005Z,11.07
2022-12-24T17:03:36.427Z,11.60
2022-12-24T17:06:07.695Z,11.27
2022-12-24T17:08:35.003Z,12.18
2022-12-24T17:11:02.396Z,15.00
2022-12-24T17:13:29.853Z,12.43
2022-12-24T17:15:57.402Z,13.88
2022-12-24T17:18:24.670Z,13.68
2022-12-24T17:20:59.418Z,16.58
2022-12-24T17:23:27.533Z,14.63
2022-12-24T17:25:54.856Z,15.57
2022-12-24T17:28:22.221Z,14.85
2022-12-24T17:30:49.506Z,15.10
2022-12-24T17:33:16.844Z,15.13
2022-12-24T17:35:44.652Z,12.38
2022-12-24T17:38:11.903Z,11.85
2022-12-24T17:40:39.142Z,15.48
2022-12-24T17:43:06.503Z,14.82
2022-12-24T17:45:33.826Z,11.65
2022-12-24T17:48:01.048Z,12.50
2022-12-24T17:50:28.370Z,11.95
2022-12-24T17:52:55.723Z,13.20
2022-12-24T17:55:23.827Z,14.02
2022-12-24T17:57:51.108Z,15.93
2022-12-24T18:00:18.630Z,14.13
2022-12-24T18:02:46.025Z,14.27
2022-12-24T18:05:13.334Z,19.17
2022-12-24T18:07:40.596Z,14.82
2022-12-24T18:10:08.161Z,22.85
2022-12-24T18:12:35.468Z,28.35
2022-12-24T18:15:02.757Z,24.02
2022-12-24T18:17:30.078Z,25.70
2022-12-24T18:19:57.518Z,24.85
2022-12-24T18:22:24.772Z,46.83
2022-12-24T18:24:52.124Z,31.85
2022-12-24T18:27:19.378Z,33.85
2022-12-24T18:29:46.628Z,27.40
2022-12-24T18:32:16.932Z,29.73
2022-12-24T18:34:44.405Z,26.55
2022-12-24T18:37:11.637Z,28.23
2022-12-24T18:39:38.918Z,40.30
2022-12-24T18:42:06.187Z,46.00
2022-12-24T18:44:33.468Z,29.40
2022-12-24T18:47:00.792Z,61.88
2022-12-24T18:49:34.030Z,51.08
2022-12-24T18:52:03.713Z,30.42
2022-12-24T18:54:31.088Z,44.95
2022-12-24T18:56:58.547Z,30.58
2022-12-24T18:59:25.813Z,31.17
2022-12-24T19:01:53.335Z,28.05
2022-12-24T19:04:20.761Z,49.95
2022-12-24T19:06:53.096Z,32.65
2022-12-24T19:09:21.253Z,39.53
2022-12-24T19:11:48.539Z,30.35
2022-12-24T19:14:16.201Z,35.88
2022-12-24T19:16:43.604Z,33.80
2022-12-24T19:19:12.453Z,37.72
2022-12-24T19:21:39.978Z,24.05
2022-12-24T19:24:10.444Z,27.77
2022-12-24T19:26:38.012Z,26.00
2022-12-24T19:29:05.309Z,30.10
2022-12-24T19:31:32.642Z,26.13
2022-12-24T19:34:00.311Z,25.92
2022-12-24T19:36:28.664Z,21.80
2022-12-24T19:38:56.664Z,26.60
2022-12-24T19:41:25.041Z,29.70
2022-12-24T19:43:53.232Z,36.42
2022-12-24T19:46:22.140Z,24.92
2022-12-24T19:48:51.327Z,27.67
2022-12-24T19:51:18.759Z,30.17
2022-12-24T19:53:46.379Z,26.52
2022-12-24T19:56:17.544Z,25.50
2022-12-24T19:58:45.144Z,27.42
2022-12-24T20:01:15.874Z,26.35
2022-12-24T20:03:44.430Z,43.05
2022-12-24T20:06:12.478Z,27.60
2022-12-24T20:08:40.265Z,32.15
2022-12-24T20:11:08.536Z,23.90
2022-12-24T20:13:36.076Z,22.58
2022-12-24T20:16:07.494Z,23.25
2022-12-24T20:18:35.018Z,21.88
2022-12-24T20:21:03.406Z,27.00
2022-12-24T20:23:30.698Z,28.33
2022-12-24T20:25:59.024Z,50.10
2022-12-24T20:28:26.764Z,29.20
2022-12-24T20:30:54.055Z,31.05
2022-12-24T20:33:21.771Z,39.63
2022-12-24T20:35:49.210Z,28.80
2022-12-24T20:38:16.674Z,25.10
2022-12-24T20:40:44.736Z,27.63
2022-12-24T20:43:16.703Z,23.48
2022-12-24T20:45:52.214Z,29.13
2022-12-24T20:48:19.866Z,31.23
2022-12-24T20:50:47.151Z,25.52
2022-12-24T20:53:14.524Z,49.13
2022-12-24T20:55:41.862Z,40.92
2022-12-24T20:58:10.346Z,57.90
2022-12-24T21:00:37.659Z,38.40
2022-12-24T21:03:05.235Z,52.78
2022-12-24T21:05:32.520Z,40.05
2022-12-24T21:07:59.833Z,38.05
2022-12-24T21:10:33.847Z,40.00
2022-12-24T21:13:01.687Z,41.28
2022-12-24T21:15:30.732Z,43.63
2022-12-24T21:18:01.634Z,46.83
2022-12-24T21:20:30.828Z,38.00
2022-12-24T21:25:28.695Z,29.95
2022-12-24T21:27:56.053Z,27.42
2022-12-24T21:30:24.091Z,25.52
2022-12-24T21:32:51.627Z,30.88
2022-12-24T21:35:19.155Z,25.75
2022-12-24T21:37:46.414Z,22.75
2022-12-24T21:40:13.847Z,22.58
2022-12-24T21:42:41.223Z,25.10
2022-12-24T21:45:08.835Z,25.00
2022-12-24T21:47:38.142Z,25.45
2022-12-24T21:50:28.311Z,22.98
2022-12-24T21:53:21.285Z,25.33
2022-12-24T21:58:27.908Z,25.75
2022-12-24T22:01:19.744Z,20.13
2022-12-24T22:03:50.647Z,25.13
2022-12-24T22:06:37.065Z,23.20
2022-12-24T22:09:40.073Z,21.92
2022-12-24T22:12:07.352Z,20.35
2022-12-24T22:14:34.731Z,25.42
2022-12-24T22:17:02.302Z,22.70
2022-12-24T22:19:29.737Z,21.95
2022-12-24T22:21:57.049Z,20.05
2022-12-24T22:24:25.721Z,22.70
2022-12-24T22:29:34.040Z,25.02
2022-12-24T22:35:48.991Z,21.10
2022-12-24T22:38:16.235Z,21.85
2022-12-24T22:40:43.498Z,21.38
2022-12-24T22:43:11.627Z,22.95
2022-12-24T22:45:40.163Z,23.08
2022-12-24T22:48:07.653Z,16.47
2022-12-24T22:50:35.057Z,19.55
2022-12-24T22:53:02.529Z,22.23
2022-12-24T22:55:30.702Z,20.85
2022-12-24T22:57:57.961Z,22.95
2022-12-24T23:00:43.041Z,20.60
2022-12-24T23:03:11.405Z,19.80
2022-12-24T23:05:39.246Z,21.67
2022-12-24T23:08:07.111Z,19.17
2022-12-24T23:10:34.469Z,22.23
2022-12-24T23:13:20.837Z,19.77
2022-12-24T23:15:48.164Z,21.08
2022-12-24T23:18:15.539Z,22.83
2022-12-24T23:20:47.327Z,19.80
2022-12-24T23:23:15.511Z,19.45
2022-12-24T23:25:42.784Z,19.05
2022-12-24T23:28:10.127Z,20.60
2022-12-24T23:30:37.393Z,21.52
2022-12-24T23:33:04.801Z,20.40
2022-12-24T23:35:35.849Z,21.70
2022-12-24T23:38:03.160Z,23.88
2022-12-24T23:40:30.808Z,20.88
2022-12-24T23:46:01.892Z,21.17
2022-12-24T23:48:30.513Z,23.77
2022-12-24T23:51:15.585Z,20.50
2022-12-24T23:53:42.965Z,20.58
2022-12-24T23:56:14.606Z,20.05
2022-12-24T23:58:42.738Z,23.67
